Time;durP1;ratioP1;P1;durP2;ratioP2;P2;SDS_P1;SDS_P2;PMS_P1;PMS_P2;Temp;Humidity;BMP_temperature;BMP_pressure;BME280_temperature;BME280_humidity;BME280_pressure;Samples;Min_cycle;Max_cycle;Signal;HPM_P1;HPM_P2
2021/09/24 00:01:20;;;;;;;10.82;6.70;;;;;;;8.27;86.57;99796.20;1635077;85;21122;-72
2021/09/24 00:03:46;;;;;;;8.50;6.92;;;;;;;8.30;86.47;99793.56;1642741;87;21094;-72
2021/09/24 00:06:13;;;;;;;7.97;6.40;;;;;;;8.32;86.48;99792.22;1645624;85;21602;-71
2021/09/24 00:08:41;;;;;;;9.63;7.05;;;;;;;8.33;86.41;99777.88;1667278;85;21118;-73
2021/09/24 00:11:09;;;;;;;8.53;6.72;;;;;;;8.35;86.34;99770.95;1644226;85;21368;-71
2021/09/24 00:13:37;;;;;;;10.28;6.90;;;;;;;8.34;86.25;99770.16;1627265;87;22004;-72
2021/09/24 00:16:04;;;;;;;8.20;6.55;;;;;;;8.35;86.23;99768.29;1638001;85;21097;-72
2021/09/24 00:18:32;;;;;;;7.92;6.65;;;;;;;8.37;86.24;99758.99;1649442;86;21071;-72
2021/09/24 00:21:00;;;;;;;9.13;6.75;;;;;;;8.41;86.23;99752.64;1663455;85;21054;-72
2021/09/24 00:23:30;;;;;;;9.70;6.95;;;;;;;8.43;86.24;99743.88;1650037;85;21142;-70
2021/09/24 00:25:57;;;;;;;8.60;7.12;;;;;;;8.48;86.24;99737.22;1644805;85;21095;-71
2021/09/24 00:28:24;;;;;;;9.33;7.42;;;;;;;8.48;86.21;99734.56;1646953;85;21139;-72
2021/09/24 00:30:52;;;;;;;9.65;6.75;;;;;;;8.49;86.25;99731.36;1652360;85;21164;-72
2021/09/24 00:33:20;;;;;;;7.72;6.17;;;;;;;8.51;86.29;99724.72;1646440;87;21058;-71
2021/09/24 00:35:47;;;;;;;8.48;6.42;;;;;;;8.50;86.24;99721.01;1641190;85;21091;-72
2021/09/24 00:38:14;;;;;;;9.68;7.22;;;;;;;8.49;86.26;99714.89;1650895;85;21147;-72
2021/09/24 00:40:42;;;;;;;7.20;6.08;;;;;;;8.50;86.27;99715.69;1656581;85;21069;-72
2021/09/24 00:43:09;;;;;;;8.80;6.78;;;;;;;8.50;86.28;99709.03;1644285;86;21066;-72
2021/09/24 00:45:38;;;;;;;9.78;7.65;;;;;;;8.50;86.27;99695.72;1652788;85;21696;-72
2021/09/24 00:48:06;;;;;;;11.08;7.83;;;;;;;8.49;86.32;99690.11;1644206;85;21011;-73
2021/09/24 00:50:35;;;;;;;9.63;7.17;;;;;;;8.51;86.42;99681.34;1647575;86;21100;-71
2021/09/24 00:53:03;;;;;;;9.23;7.17;;;;;;;8.54;86.52;99689.59;1633282;85;21091;-71
2021/09/24 00:55:32;;;;;;;9.28;7.22;;;;;;;8.55;86.58;99692.52;1632354;85;21196;-71
2021/09/24 00:58:00;;;;;;;9.88;7.33;;;;;;;8.54;86.67;99680.28;1637330;85;21071;-71
2021/09/24 01:00:27;;;;;;;8.98;7.28;;;;;;;8.56;86.77;99678.16;1636991;85;21150;-72
2021/09/24 01:02:53;;;;;;;8.88;6.87;;;;;;;8.59;86.91;99671.52;1637782;85;21767;-71
2021/09/24 01:05:20;;;;;;;10.10;7.50;;;;;;;8.61;87.05;99672.83;1648950;85;21146;-72
2021/09/24 01:07:49;;;;;;;8.55;7.00;;;;;;;8.62;87.20;99668.30;1637600;85;21104;-72
2021/09/24 01:10:20;;;;;;;9.20;7.55;;;;;;;8.63;87.38;99660.06;1634336;85;21026;-72
2021/09/24 01:12:53;;;;;;;9.28;7.35;;;;;;;8.65;87.53;99654.46;1629700;85;21158;-72
2021/09/24 01:15:21;;;;;;;9.20;7.00;;;;;;;8.66;87.66;99651.55;1630448;86;21554;-72
2021/09/24 01:17:47;;;;;;;9.30;7.15;;;;;;;8.66;87.77;99642.77;1621471;86;21076;-72
2021/09/24 01:20:20;;;;;;;9.28;7.17;;;;;;;8.66;87.88;99636.91;1620108;87;21095;-71
2021/09/24 01:22:51;;;;;;;9.00;7.10;;;;;;;8.66;88.00;99640.90;1622631;86;21770;-72
2021/09/24 01:25:21;;;;;;;9.28;7.58;;;;;;;8.65;88.13;99644.64;1618597;86;21082;-71
2021/09/24 01:27:49;;;;;;;8.93;7.72;;;;;;;8.65;88.27;99637.98;1612450;87;21147;-72
2021/09/24 01:30:27;;;;;;;8.00;6.72;;;;;;;8.65;88.39;99637.16;1623646;87;21091;-71
2021/09/24 01:33:01;;;;;;;8.83;7.47;;;;;;;8.65;88.50;99629.17;1618959;86;21071;-71
2021/09/24 01:35:35;;;;;;;9.88;7.97;;;;;;;8.64;88.55;99619.06;1603295;87;21122;-73
2021/09/24 01:38:06;;;;;;;10.25;6.92;;;;;;;8.64;88.67;99618.27;1627122;86;21047;-73
2021/09/24 01:40:39;;;;;;;9.48;7.22;;;;;;;8.64;88.72;99616.40;1601810;88;21559;-72
2021/09/24 01:43:11;;;;;;;10.32;7.75;;;;;;;8.64;88.81;99605.75;1622450;86;21092;-72
2021/09/24 01:45:43;;;;;;;9.50;7.33;;;;;;;8.65;88.85;99594.56;1640549;86;21059;-72
2021/09/24 01:48:16;;;;;;;8.93;7.78;;;;;;;8.67;88.93;99580.47;1614154;86;21074;-73
2021/09/24 01:50:53;;;;;;;10.35;7.85;;;;;;;8.68;89.04;99581.52;1627225;87;21102;-71
2021/09/24 01:53:21;;;;;;;9.90;7.85;;;;;;;8.73;89.07;99578.06;1592777;87;21154;-71
2021/09/24 01:55:57;;;;;;;10.82;8.23;;;;;;;8.75;89.10;99577.78;1610834;88;21047;-70
2021/09/24 01:58:24;;;;;;;9.48;7.80;;;;;;;8.76;89.14;99568.75;1640853;85;22160;-71
2021/09/24 02:00:56;;;;;;;9.93;7.95;;;;;;;8.76;89.21;99568.75;1614595;87;21106;-71
2021/09/24 02:03:26;;;;;;;10.20;8.48;;;;;;;8.75;89.24;99569.26;1642603;85;21078;-69
2021/09/24 02:05:53;;;;;;;9.03;7.83;;;;;;;8.76;89.33;99562.09;1630755;86;21098;-71
2021/09/24 02:08:23;;;;;;;10.05;8.05;;;;;;;8.76;89.34;99555.44;1662012;85;21608;-70
2021/09/24 02:10:53;;;;;;;9.80;8.10;;;;;;;8.78;89.42;99548.75;1668779;85;21127;-71
2021/09/24 02:13:20;;;;;;;9.90;8.18;;;;;;;8.80;89.49;99549.30;1626488;87;21142;-70
2021/09/24 02:15:49;;;;;;;10.35;8.05;;;;;;;8.80;89.60;99539.98;1644605;86;21125;-71
2021/09/24 02:18:17;;;;;;;10.93;9.45;;;;;;;8.80;89.74;99550.63;1640762;87;21955;-72
2021/09/24 02:20:46;;;;;;;11.00;8.20;;;;;;;8.77;89.89;99537.06;1641928;87;21098;-71
2021/09/24 02:23:12;;;;;;;12.13;9.20;;;;;;;8.76;90.02;99534.94;1650444;86;21102;-72
2021/09/24 02:25:39;;;;;;;11.40;9.05;;;;;;;8.78;90.09;99527.45;1640111;87;21181;-73
2021/09/24 02:28:06;;;;;;;13.10;9.95;;;;;;;8.80;90.17;99516.02;1662568;86;21082;-73
2021/09/24 02:30:35;;;;;;;10.70;8.75;;;;;;;8.82;90.27;99520.55;1653682;85;21586;-74
2021/09/24 02:33:03;;;;;;;10.78;9.30;;;;;;;8.83;90.33;99506.69;1669463;85;21070;-73
2021/09/24 02:35:31;;;;;;;13.25;9.70;;;;;;;8.86;90.34;99510.94;1630901;87;21085;-73
2021/09/24 02:37:58;;;;;;;10.53;9.13;;;;;;;8.87;90.51;99505.08;1640375;85;21126;-72
2021/09/24 02:40:26;;;;;;;12.95;10.08;;;;;;;8.86;90.58;99500.30;1614464;86;21094;-71
2021/09/24 02:42:55;;;;;;;11.80;9.10;;;;;;;8.87;90.70;99497.87;1636710;86;21800;-69
2021/09/24 02:45:25;;;;;;;12.43;10.55;;;;;;;8.88;90.76;99493.34;1629686;86;21044;-71
2021/09/24 02:47:55;;;;;;;13.20;10.18;;;;;;;8.87;90.86;99483.23;1648666;85;21167;-70
2021/09/24 02:50:22;;;;;;;11.28;9.93;;;;;;;8.90;90.97;99476.58;1646586;85;21072;-71
2021/09/24 02:52:49;;;;;;;11.60;9.90;;;;;;;8.89;91.07;99472.33;1652096;85;21051;-70
2021/09/24 02:55:20;;;;;;;11.73;10.50;;;;;;;8.91;91.16;99470.17;1631307;86;21090;-71
2021/09/24 02:57:49;;;;;;;;;;;;;;;8.91;91.26;99463.52;1641223;86;21140;-71
2021/09/24 03:00:16;;;;;;;11.05;9.40;;;;;;;8.93;91.35;99462.18;1647918;85;20157;-71
2021/09/24 03:02:43;;;;;;;11.57;9.60;;;;;;;8.97;91.42;99456.31;1651234;85;21031;-71
2021/09/24 03:05:11;;;;;;;11.43;9.28;;;;;;;8.97;91.50;99453.64;1639913;85;21050;-70
2021/09/24 03:07:40;;;;;;;11.08;8.48;;;;;;;8.98;91.64;99460.56;1638568;85;21034;-70
2021/09/24 03:10:08;;;;;;;11.40;10.03;;;;;;;8.99;91.65;99450.98;1632901;85;21094;-71
2021/09/24 03:12:37;;;;;;;12.68;10.32;;;;;;;9.02;91.71;99439.78;1643652;85;21020;-71
2021/09/24 03:15:08;;;;;;;11.35;9.05;;;;;;;9.04;91.75;99433.62;1657290;85;21079;-72
2021/09/24 03:17:37;;;;;;;13.30;9.85;;;;;;;9.06;91.79;99434.16;1661537;85;21098;-72
2021/09/24 03:20:07;;;;;;;13.55;10.53;;;;;;;9.07;91.81;99434.95;1662785;85;21140;-72
2021/09/24 03:22:35;;;;;;;11.93;9.70;;;;;;;9.07;91.86;99438.95;1632377;85;21050;-73
2021/09/24 03:25:04;;;;;;;12.18;9.75;;;;;;;9.07;91.86;99423.76;1651411;85;21670;-69
2021/09/24 03:27:36;;;;;;;11.70;9.73;;;;;;;9.08;91.89;99420.05;1647564;85;21027;-68
2021/09/24 03:30:07;;;;;;;11.03;9.40;;;;;;;9.08;91.93;99414.72;1653492;85;21648;-68
2021/09/24 03:32:36;;;;;;;13.05;10.03;;;;;;;9.10;92.04;99406.44;1630692;85;21186;-69
2021/09/24 03:35:05;;;;;;;12.20;9.63;;;;;;;9.10;92.05;99396.58;1645426;85;21438;-68
2021/09/24 03:37:37;;;;;;;11.88;10.63;;;;;;;9.12;92.12;99394.44;1642083;85;21126;-68
2021/09/24 03:40:07;;;;;;;11.70;9.83;;;;;;;9.13;92.24;99396.03;1641451;85;21059;-68
2021/09/24 03:42:34;;;;;;;12.73;10.18;;;;;;;9.13;92.23;99384.58;1643064;86;20996;-68
2021/09/24 03:45:01;;;;;;;11.08;9.48;;;;;;;9.13;92.29;99373.38;1653128;85;21106;-68
2021/09/24 03:47:28;;;;;;;11.70;9.88;;;;;;;9.14;92.36;99384.28;1644042;85;21106;-68
2021/09/24 03:49:55;;;;;;;12.05;9.80;;;;;;;9.14;92.44;99372.84;1633329;86;21494;-68
2021/09/24 03:52:21;;;;;;;12.68;10.35;;;;;;;9.16;92.50;99372.83;1641914;85;21126;-68
2021/09/24 03:54:49;;;;;;;12.03;10.13;;;;;;;9.17;92.58;99352.31;1636540;86;21734;-68
2021/09/24 03:57:18;;;;;;;12.33;9.30;;;;;;;9.19;92.63;99356.84;1638437;85;21129;-68
2021/09/24 03:59:47;;;;;;;12.07;9.85;;;;;;;9.21;92.68;99345.89;1646697;85;21050;-68
2021/09/24 04:02:20;;;;;;;12.82;10.58;;;;;;;9.23;92.68;99338.42;1645816;85;21067;-68
2021/09/24 04:04:46;;;;;;;13.93;10.68;;;;;;;9.23;92.72;99335.22;1647275;85;21199;-69
2021/09/24 04:07:15;;;;;;;11.38;8.95;;;;;;;9.25;92.78;99326.97;1637120;85;21569;-69
2021/09/24 04:09:43;;;;;;;14.93;10.88;;;;;;;9.25;92.84;99318.98;1634917;85;21035;-68
2021/09/24 04:12:10;;;;;;;12.33;10.40;;;;;;;9.25;92.84;99324.30;1646793;85;21140;-69
2021/09/24 04:14:38;;;;;;;13.20;10.90;;;;;;;9.27;92.90;99320.80;1656163;85;21034;-68
2021/09/24 04:17:05;;;;;;;11.30;9.60;;;;;;;9.26;92.98;99312.02;1626798;85;21117;-68
2021/09/24 04:19:34;;;;;;;12.93;10.18;;;;;;;9.26;93.00;99304.57;1637744;85;21113;-68
2021/09/24 04:22:01;;;;;;;12.58;10.35;;;;;;;9.27;93.08;99308.81;1645125;86;21077;-68
2021/09/24 04:24:29;;;;;;;14.30;10.58;;;;;;;9.28;93.11;99302.41;1647776;85;21098;-68
2021/09/24 04:26:59;;;;;;;12.77;10.23;;;;;;;9.27;93.19;99298.95;1643979;85;21057;-68
2021/09/24 04:29:28;;;;;;;13.08;10.00;;;;;;;9.29;93.25;99292.02;1646987;85;21920;-68
2021/09/24 04:31:58;;;;;;;11.35;9.58;;;;;;;9.30;93.29;99278.95;1640803;85;21174;-67
2021/09/24 04:34:25;;;;;;;12.00;9.28;;;;;;;9.32;93.37;99275.48;1632806;85;21097;-67
2021/09/24 04:36:52;;;;;;;11.38;9.00;;;;;;;9.34;93.39;99269.31;1646084;85;21065;-67
2021/09/24 04:39:21;;;;;;;12.70;9.60;;;;;;;9.37;93.38;99266.09;1630906;85;21098;-67
2021/09/24 04:41:47;;;;;;;12.07;9.40;;;;;;;9.37;93.32;99257.56;1632719;87;21288;-68
2021/09/24 04:44:15;;;;;;;10.38;8.65;;;;;;;9.41;93.36;99251.16;1643299;85;21051;-67
2021/09/24 04:46:46;;;;;;;12.80;9.90;;;;;;;9.42;93.37;99250.07;1652420;85;21162;-68
2021/09/24 04:49:12;;;;;;;9.65;8.28;;;;;;;9.44;93.35;99241.78;1645127;85;21094;-67
2021/09/24 04:51:39;;;;;;;11.43;9.20;;;;;;;9.45;93.38;99226.06;1668738;85;21039;-68
2021/09/24 04:54:06;;;;;;;10.70;8.03;;;;;;;9.48;93.38;99237.50;1641133;85;21077;-68
2021/09/24 04:56:34;;;;;;;11.50;9.10;;;;;;;9.50;93.34;99234.00;1651239;85;21051;-68
2021/09/24 04:59:00;;;;;;;12.25;9.60;;;;;;;9.48;93.36;99229.50;1637196;85;22175;-67
2021/09/24 05:01:30;;;;;;;10.72;8.88;;;;;;;9.47;93.40;99214.57;1642039;85;21013;-68
2021/09/24 05:03:57;;;;;;;12.73;9.25;;;;;;;9.49;93.42;99217.76;1647623;85;21031;-69
2021/09/24 05:06:24;;;;;;;11.70;9.28;;;;;;;9.49;93.42;99209.22;1644945;87;21028;-68
2021/09/24 05:08:53;;;;;;;11.13;8.47;;;;;;;9.48;93.41;99208.19;1641540;85;21150;-68
2021/09/24 05:11:19;;;;;;;11.43;9.67;;;;;;;9.49;93.48;99205.22;1643475;85;21796;-67
2021/09/24 05:13:48;;;;;;;11.03;9.23;;;;;;;9.51;93.52;99204.41;1646252;85;21678;-67
2021/09/24 05:16:15;;;;;;;11.20;9.00;;;;;;;9.52;93.53;99199.33;1659379;85;21815;-68
2021/09/24 05:18:48;;;;;;;12.63;9.17;;;;;;;9.53;93.56;99190.79;1638362;85;22152;-68
2021/09/24 05:21:25;;;;;;;11.55;7.70;;;;;;;9.51;93.51;99193.75;1644991;85;21268;-67
2021/09/24 05:23:44;;;;;;;11.60;8.80;;;;;;;9.51;93.57;99183.09;1645300;85;21144;-67
2021/09/24 05:26:14;;;;;;;11.47;8.07;;;;;;;9.52;93.58;99167.88;1644159;85;21506;-68
2021/09/24 05:28:44;;;;;;;8.50;7.10;;;;;;;9.53;93.62;99169.47;1642682;85;21384;-67
2021/09/24 05:31:13;;;;;;;11.50;9.17;;;;;;;9.54;93.67;99159.87;1642827;86;21149;-68
2021/09/24 05:33:42;;;;;;;10.40;8.30;;;;;;;9.57;93.74;99147.82;1639924;85;21523;-68
2021/09/24 05:36:11;;;;;;;12.63;8.83;;;;;;;9.58;93.80;99152.88;1635911;85;21199;-68
2021/09/24 05:38:41;;;;;;;9.30;7.67;;;;;;;9.58;93.80;99144.89;1639967;85;21245;-68
2021/09/24 05:41:09;;;;;;;11.03;8.10;;;;;;;9.61;93.87;99136.32;1644150;86;21823;-68
2021/09/24 05:43:40;;;;;;;9.23;7.45;;;;;;;9.64;93.93;99137.63;1645339;85;21421;-68
2021/09/24 05:46:07;;;;;;;10.87;8.10;;;;;;;9.68;94.02;99125.86;1644482;85;20983;-68
2021/09/24 05:48:36;;;;;;;11.17;8.47;;;;;;;9.69;93.98;99126.89;1623724;85;21303;-67
2021/09/24 05:51:04;;;;;;;10.10;8.27;;;;;;;9.71;94.01;99109.29;1643727;85;21370;-67
2021/09/24 05:53:30;;;;;;;10.03;8.30;;;;;;;9.72;94.03;99114.86;1645986;85;21313;-68
2021/09/24 05:55:59;;;;;;;9.97;8.23;;;;;;;9.72;94.01;99113.53;1637224;85;21294;-68
2021/09/24 05:58:29;;;;;;;9.73;7.70;;;;;;;9.71;94.02;99102.63;1638743;85;21254;-70
2021/09/24 06:00:55;;;;;;;9.97;8.17;;;;;;;9.73;94.05;99099.11;1630350;86;21212;-68
2021/09/24 06:03:22;;;;;;;10.13;7.57;;;;;;;9.74;94.06;99088.69;1632870;85;21330;-69
2021/09/24 06:05:50;;;;;;;9.30;6.90;;;;;;;9.77;94.14;99088.12;1643241;85;21327;-67
2021/09/24 06:08:18;;;;;;;9.97;7.67;;;;;;;9.79;94.13;99095.30;1638958;85;21717;-68
2021/09/24 06:10:45;;;;;;;10.10;7.87;;;;;;;9.81;94.10;99089.94;1645447;85;21303;-68
2021/09/24 06:13:15;;;;;;;8.63;7.43;;;;;;;9.83;94.12;99079.77;1639532;85;21384;-68
2021/09/24 06:15:42;;;;;;;9.33;7.63;;;;;;;9.87;94.04;99071.98;1635734;85;21315;-68
2021/09/24 06:18:11;;;;;;;9.33;7.57;;;;;;;9.86;93.99;99075.19;1641090;85;21524;-68
2021/09/24 06:20:42;;;;;;;9.43;6.83;;;;;;;9.86;94.03;99073.06;1646974;85;21740;-68
2021/09/24 06:23:09;;;;;;;8.93;7.10;;;;;;;9.86;94.02;99073.06;1648794;85;21330;-68
2021/09/24 06:25:36;;;;;;;8.93;6.80;;;;;;;9.89;94.00;99069.04;1640298;85;22060;-69
2021/09/24 06:28:08;;;;;;;9.83;6.70;;;;;;;9.89;93.99;99060.49;1630081;86;21174;-69
2021/09/24 06:30:34;;;;;;;7.95;6.75;;;;;;;9.89;93.99;99049.03;1607242;87;21143;-68
2021/09/24 06:33:02;;;;;;;7.30;6.40;;;;;;;9.87;94.00;99049.31;1637399;85;21087;-68
2021/09/24 06:35:30;;;;;;;9.23;7.40;;;;;;;9.89;94.04;99045.03;1648394;85;21300;-68
2021/09/24 06:37:59;;;;;;;7.23;6.10;;;;;;;9.91;94.01;99048.22;1638788;85;21322;-67
2021/09/24 06:40:27;;;;;;;10.10;7.33;;;;;;;9.91;94.01;99044.22;1632965;85;21326;-68
2021/09/24 06:42:55;;;;;;;8.50;7.07;;;;;;;9.91;93.99;99033.55;1642896;85;21348;-66
2021/09/24 06:45:22;;;;;;;9.37;6.73;;;;;;;9.91;93.94;99034.34;1640836;85;21347;-69
2021/09/24 06:47:49;;;;;;;11.60;7.50;;;;;;;9.91;93.98;99042.34;1645095;85;21157;-68
2021/09/24 06:50:18;;;;;;;9.50;7.23;;;;;;;9.90;93.93;99027.95;1652848;85;21988;-68
2021/09/24 06:52:46;;;;;;;9.83;7.33;;;;;;;9.90;94.00;99010.61;1644737;85;21332;-68
2021/09/24 06:55:15;;;;;;;9.10;6.80;;;;;;;9.90;93.96;99019.94;1656068;85;21491;-69
2021/09/24 06:57:47;;;;;;;9.43;7.53;;;;;;;9.89;94.02;99032.48;1644048;85;21381;-69
2021/09/24 07:00:14;;;;;;;8.90;7.20;;;;;;;9.88;94.06;99026.91;1639200;85;21343;-69
2021/09/24 07:02:41;;;;;;;9.37;7.07;;;;;;;9.88;94.08;99033.58;1635885;85;21314;-68
2021/09/24 07:05:15;;;;;;;8.93;7.10;;;;;;;9.86;94.10;99017.06;1637850;85;21639;-69
2021/09/24 07:07:57;;;;;;;8.80;6.67;;;;;;;9.87;94.05;99015.97;1646755;85;21397;-67
2021/09/24 07:10:32;;;;;;;9.03;6.83;;;;;;;9.89;94.08;99012.48;1637372;85;21932;-68
2021/09/24 07:13:05;;;;;;;9.43;7.10;;;;;;;9.92;94.15;99015.13;1640961;85;21333;-70
2021/09/24 07:15:43;;;;;;;9.53;7.03;;;;;;;9.95;94.01;99010.55;1648015;85;21365;-69
2021/09/24 07:18:09;;;;;;;11.03;6.87;;;;;;;9.99;94.03;99012.33;1638395;85;21336;-70
2021/09/24 07:20:38;;;;;;;9.90;7.13;;;;;;;10.04;94.03;99004.80;1643568;85;21363;-70
2021/09/24 07:23:13;;;;;;;8.53;6.83;;;;;;;10.06;93.91;99003.41;1646501;85;21415;-70
2021/09/24 07:25:40;;;;;;;8.23;6.50;;;;;;;10.08;93.88;99001.80;1635439;85;21399;-69
2021/09/24 07:28:07;;;;;;;9.87;6.73;;;;;;;10.10;93.89;99003.10;1644484;85;21314;-70
2021/09/24 07:30:34;;;;;;;7.40;6.60;;;;;;;10.11;93.70;98995.88;1638346;85;21474;-70
2021/09/24 07:33:07;;;;;;;8.80;6.83;;;;;;;10.12;93.75;98988.13;1640769;85;21905;-69
2021/09/24 07:35:33;;;;;;;8.10;6.63;;;;;;;10.11;93.63;98986.55;1644966;85;22073;-69
2021/09/24 07:38:01;;;;;;;8.67;6.60;;;;;;;10.11;93.56;98987.87;1640873;85;21410;-69
2021/09/24 07:40:28;;;;;;;7.63;6.47;;;;;;;10.07;93.56;98978.34;1645794;85;21784;-70
2021/09/24 07:42:55;;;;;;;7.83;6.43;;;;;;;10.06;93.58;98977.28;1642384;85;21323;-70
2021/09/24 07:45:22;;;;;;;7.83;6.80;;;;;;;10.05;93.55;98979.16;1652622;85;21354;-70
2021/09/24 07:47:50;;;;;;;8.37;6.13;;;;;;;10.05;93.57;98980.49;1649313;85;21360;-70
2021/09/24 07:50:16;;;;;;;7.10;5.83;;;;;;;10.09;93.70;98972.16;1645362;85;21615;-70
2021/09/24 07:52:45;;;;;;;7.90;6.20;;;;;;;10.16;93.74;98980.33;1648114;85;21164;-70
2021/09/24 07:55:13;;;;;;;7.83;6.40;;;;;;;10.19;93.66;98974.41;1645267;85;21403;-69
2021/09/24 07:57:41;;;;;;;8.53;6.43;;;;;;;10.20;93.65;98985.31;1634321;85;21450;-70
2021/09/24 08:00:09;;;;;;;7.90;6.63;;;;;;;10.19;93.79;98980.53;1641786;85;21325;-69
2021/09/24 08:02:41;;;;;;;7.20;5.57;;;;;;;10.16;93.96;98973.66;1633968;85;21579;-70
2021/09/24 08:05:13;;;;;;;8.67;6.83;;;;;;;10.15;94.14;98977.41;1638286;85;21540;-71
2021/09/24 08:07:42;;;;;;;7.33;5.87;;;;;;;10.17;94.24;98980.56;1647370;85;21352;-68
2021/09/24 08:10:11;;;;;;;7.30;5.87;;;;;;;10.20;94.27;98971.98;1645804;85;21369;-70
2021/09/24 08:12:40;;;;;;;7.10;5.43;;;;;;;10.26;94.33;98968.17;1670969;84;21397;-72
2021/09/24 08:15:11;;;;;;;8.07;6.53;;;;;;;10.26;94.33;98968.17;1641840;85;22528;-71
2021/09/24 08:17:37;;;;;;;8.27;6.70;;;;;;;10.31;94.32;98967.55;1641162;85;21884;-72
2021/09/24 08:20:07;;;;;;;6.67;5.80;;;;;;;10.38;94.33;98966.38;1641722;85;21223;-69
2021/09/24 08:22:38;;;;;;;8.63;5.67;;;;;;;10.45;94.11;98976.12;1622600;85;21287;-69
2021/09/24 08:25:13;;;;;;;7.60;6.10;;;;;;;10.50;94.02;98977.38;1643721;85;21202;-70
2021/09/24 08:27:41;;;;;;;7.20;5.83;;;;;;;10.53;93.79;98957.55;1638475;85;21257;-69
2021/09/24 08:30:12;;;;;;;8.40;5.93;;;;;;;10.58;93.66;98959.88;1645954;85;21352;-69
2021/09/24 08:32:40;;;;;;;7.57;6.13;;;;;;;10.60;93.52;98955.83;1641570;85;21286;-69
2021/09/24 08:35:11;;;;;;;7.97;6.37;;;;;;;10.65;93.43;98944.25;1637861;85;21179;-68
2021/09/24 08:37:42;;;;;;;6.87;5.60;;;;;;;10.74;93.44;98953.95;1641451;85;21363;-69
2021/09/24 08:40:12;;;;;;;6.83;5.58;;;;;;;10.87;93.40;98941.67;1643764;85;21817;-69
2021/09/24 08:42:43;;;;;;;6.97;5.83;;;;;;;11.01;93.26;98942.44;1637828;85;21128;-69
2021/09/24 08:45:15;;;;;;;7.30;5.80;;;;;;;11.14;92.85;98948.86;1641126;85;21077;-69
2021/09/24 08:47:43;;;;;;;9.13;6.07;;;;;;;11.21;92.27;98951.91;1640549;85;21236;-71
2021/09/24 08:50:13;;;;;;;7.40;5.57;;;;;;;11.29;91.89;98963.80;1640699;85;21403;-69
2021/09/24 08:52:42;;;;;;;7.47;5.70;;;;;;;11.34;91.71;98966.89;1637814;85;21329;-69
2021/09/24 08:55:11;;;;;;;8.53;5.57;;;;;;;11.40;91.39;98959.01;1630314;86;21297;-69
2021/09/24 08:57:42;;;;;;;7.33;5.83;;;;;;;11.43;90.76;98953.06;1637948;85;21436;-70
2021/09/24 09:00:11;;;;;;;;;;;;;;;11.44;90.31;98958.09;1624287;85;21392;-68
2021/09/24 09:03:03;;;;;;;7.57;5.70;;;;;;;11.43;90.24;98954.40;1640960;87;20482;-68
2021/09/24 09:05:37;;;;;;;7.12;5.33;;;;;;;11.40;90.28;98961.68;1637176;86;21311;-69
2021/09/24 09:08:06;;;;;;;7.20;5.60;;;;;;;11.38;90.41;98964.64;1612561;87;21174;-70
2021/09/24 09:10:59;;;;;;;6.90;5.23;;;;;;;11.42;90.43;98944.26;1605007;87;22569;-70
2021/09/24 09:13:40;;;;;;;7.13;4.97;;;;;;;11.47;90.26;98953.48;1614135;87;21458;-69
2021/09/24 09:16:14;;;;;;;7.07;5.60;;;;;;;11.51;90.12;98960.35;1606630;87;21416;-68
2021/09/24 09:18:43;;;;;;;6.43;5.53;;;;;;;11.55;89.89;98953.85;1608092;87;21229;-68
2021/09/24 09:21:13;;;;;;;6.07;5.07;;;;;;;11.64;89.77;98942.69;1651454;85;21946;-69
2021/09/24 09:23:48;;;;;;;6.37;5.17;;;;;;;11.75;89.73;98938.69;1652836;85;21824;-69
2021/09/24 09:26:13;;;;;;;6.73;5.13;;;;;;;11.87;89.52;98932.80;1638145;85;21296;-69
2021/09/24 09:28:55;;;;;;;5.80;4.47;;;;;;;12.00;89.19;98935.17;1638159;85;21467;-70
2021/09/24 09:31:32;;;;;;;6.77;5.00;;;;;;;12.16;89.18;98935.03;1639515;85;21567;-69
2021/09/24 09:34:06;;;;;;;6.20;4.70;;;;;;;12.32;88.61;98935.43;1665770;85;22147;-69
2021/09/24 09:36:42;;;;;;;5.37;4.10;;;;;;;12.48;88.21;98930.47;1637426;86;22210;-70
2021/09/24 09:39:13;;;;;;;6.20;4.47;;;;;;;12.77;86.59;98932.07;1644245;85;21573;-70
2021/09/24 09:41:56;;;;;;;6.60;4.60;;;;;;;12.82;86.07;98949.87;1647868;85;22242;-70
2021/09/24 09:44:32;;;;;;;6.27;4.70;;;;;;;12.82;86.07;98949.87;1639356;85;21697;-69
2021/09/24 09:46:58;;;;;;;5.47;4.10;;;;;;;12.80;85.08;98937.33;1644229;85;21820;-70
2021/09/24 09:49:30;;;;;;;5.33;4.03;;;;;;;12.98;84.26;98943.55;1643671;85;21637;-69
2021/09/24 09:52:12;;;;;;;6.27;4.20;;;;;;;12.98;84.26;98943.55;1649578;85;21809;-71
2021/09/24 09:54:40;;;;;;;6.63;4.27;;;;;;;13.18;84.05;98938.14;1641020;85;21854;-70
2021/09/24 09:57:22;;;;;;;5.30;3.87;;;;;;;13.49;83.76;98922.74;1639291;85;21903;-70
2021/09/24 09:59:51;;;;;;;6.57;4.20;;;;;;;13.74;82.50;98939.91;1644695;85;21812;-70
2021/09/24 10:02:29;;;;;;;6.50;3.70;;;;;;;13.96;81.42;98938.16;1638053;85;21840;-69
2021/09/24 10:04:57;;;;;;;6.47;4.40;;;;;;;14.14;79.50;98930.28;1628337;86;21098;-71
2021/09/24 10:07:33;;;;;;;7.83;3.70;;;;;;;14.37;78.09;98924.13;1634962;85;21797;-71
2021/09/24 10:10:13;;;;;;;6.00;3.70;;;;;;;14.60;75.87;98918.55;1643115;85;21820;-72
2021/09/24 10:12:41;;;;;;;4.93;3.30;;;;;;;14.77;75.21;98927.33;1636298;85;21849;-70
2021/09/24 10:15:09;;;;;;;5.70;3.43;;;;;;;14.87;74.39;98933.42;1647062;87;21874;-71
2021/09/24 10:17:38;;;;;;;7.10;3.50;;;;;;;14.86;73.77;98927.83;1643314;85;20991;-70
2021/09/24 10:20:09;;;;;;;4.90;2.97;;;;;;;14.80;73.54;98922.40;1644778;85;21106;-70
2021/09/24 10:22:37;;;;;;;5.87;2.98;;;;;;;14.75;73.08;98929.54;1647167;85;21588;-71
2021/09/24 10:25:05;;;;;;;4.67;3.03;;;;;;;14.81;72.93;98922.62;1642512;85;21162;-71
2021/09/24 10:27:36;;;;;;;4.80;3.10;;;;;;;14.90;72.13;98922.02;1644376;85;21074;-70
2021/09/24 10:30:12;;;;;;;5.53;3.00;;;;;;;14.99;71.42;98936.20;1628222;85;21653;-70
2021/09/24 10:33:00;;;;;;;6.67;2.90;;;;;;;15.05;70.49;98924.16;1645897;85;21081;-70
2021/09/24 10:35:55;;;;;;;5.13;2.80;;;;;;;15.06;70.54;98924.94;1636073;85;21180;-70
2021/09/24 10:38:30;;;;;;;4.87;2.60;;;;;;;15.07;70.19;98925.16;1626957;85;21204;-70
2021/09/24 10:41:07;;;;;;;4.03;2.60;;;;;;;15.01;70.04;98923.23;1636950;85;21115;-70
2021/09/24 10:43:50;;;;;;;5.70;2.30;;;;;;;14.88;68.29;98929.08;1642091;85;21107;-68
2021/09/24 10:46:40;;;;;;;4.97;2.43;;;;;;;14.73;66.00;98949.22;1645966;85;21336;-70
2021/09/24 10:49:30;;;;;;;4.80;2.30;;;;;;;14.57;65.75;98938.78;1645099;85;21649;-69
2021/09/24 10:52:05;;;;;;;4.77;2.10;;;;;;;14.50;66.49;98950.03;1643920;85;21530;-70
2021/09/24 10:54:33;;;;;;;4.90;1.87;;;;;;;14.53;66.34;98945.36;1643752;85;21148;-70
2021/09/24 10:57:09;;;;;;;5.77;1.93;;;;;;;14.58;65.74;98939.03;1624946;85;21114;-71
2021/09/24 10:59:44;;;;;;;5.10;1.70;;;;;;;14.63;63.49;98954.17;1620075;85;21743;-70
2021/09/24 11:02:39;;;;;;;3.10;1.47;;;;;;;14.60;62.37;98943.52;1646695;85;21127;-70
2021/09/24 11:05:08;;;;;;;5.27;1.73;;;;;;;14.51;61.89;98936.85;1634216;85;21130;-70
2021/09/24 11:07:36;;;;;;;6.77;2.70;;;;;;;14.46;62.39;98942.92;1644459;85;21691;-72
2021/09/24 11:10:05;;;;;;;5.87;2.10;;;;;;;14.40;62.63;98953.60;1647758;85;21620;-71
2021/09/24 11:12:37;;;;;;;4.73;1.70;;;;;;;14.29;61.94;98956.64;1645064;85;21589;-71
2021/09/24 11:15:14;;;;;;;3.97;1.30;;;;;;;14.20;62.16;98950.49;1623299;87;21134;-71
2021/09/24 11:17:52;;;;;;;5.43;1.97;;;;;;;14.20;62.16;98950.49;1635970;85;21182;-70
2021/09/24 11:21:09;;;;;;;5.65;2.22;;;;;;;14.19;62.23;98946.23;1642844;85;21066;-69
2021/09/24 11:23:38;;;;;;;4.87;1.70;;;;;;;14.24;62.61;98945.27;1616520;87;21128;-70
2021/09/24 11:26:25;;;;;;;5.03;1.57;;;;;;;14.30;63.01;98947.46;1618788;86;21590;-70
2021/09/24 11:29:10;;;;;;;4.73;1.60;;;;;;;14.38;63.03;98939.69;1622383;86;21562;-69
2021/09/24 11:32:05;;;;;;;4.30;1.57;;;;;;;14.49;63.13;98949.77;1612614;86;22014;-70
2021/09/24 11:34:46;;;;;;;3.53;1.30;;;;;;;14.58;62.31;98939.56;1648686;85;21083;-71
2021/09/24 11:37:28;;;;;;;4.12;1.20;;;;;;;14.62;61.57;98968.73;1615616;87;21565;-70
2021/09/24 11:40:05;;;;;;;3.83;1.30;;;;;;;14.54;61.88;98943.45;1619541;87;21082;-71
2021/09/24 11:42:36;;;;;;;6.60;2.30;;;;;;;14.51;62.12;98952.16;1610422;86;21918;-71
2021/09/24 11:45:08;;;;;;;3.37;1.32;;;;;;;14.53;61.94;98948.05;1608200;86;21441;-71
2021/09/24 11:47:40;;;;;;;4.70;1.90;;;;;;;14.62;62.48;98956.64;1612431;87;21159;-71
2021/09/24 11:50:17;;;;;;;7.83;1.40;;;;;;;14.74;62.94;98949.47;1629973;85;21099;-71
2021/09/24 11:52:54;;;;;;;4.73;1.37;;;;;;;14.88;61.95;98956.52;1625216;86;21058;-70